Time,TemperatureF,DewpointF,PressureIn,WindDirection,WindDirectionDegrees,WindSpeedMPH,WindSpeedGustMPH,Humidity,HourlyPrecipIn,Conditions,Clouds,dailyrainin,SoftwareType,DateUTC
2013-01-20 00:03:00,9.4,6.8,30.78,East,94,0.0,0.0,89,0.00,,,0.00,VWS V14.01,2013-01-20 07:03:00,
2013-01-20 00:08:00,9.4,6.8,30.78,East,94,0.0,0.0,89,0.00,,,0.00,VWS V14.01,2013-01-20 07:08:00,
2013-01-20 00:13:00,9.3,7.0,30.78,East,94,0.0,0.0,90,0.00,,,0.00,VWS V14.01,2013-01-20 07:13:00,
2013-01-20 00:18:00,9.4,7.1,30.78,East,94,0.0,0.0,90,0.00,,,0.00,VWS V14.01,2013-01-20 07:18:00,
2013-01-20 00:23:00,9.6,7.3,30.78,East,94,0.0,0.0,90,0.00,,,0.00,VWS V14.01,2013-01-20 07:23:00,
2013-01-20 00:28:00,9.6,7.3,30.78,East,94,0.0,0.0,90,0.00,,,0.00,VWS V14.01,2013-01-20 07:28:00,
2013-01-20 00:33:00,9.6,7.0,30.78,East,94,0.0,0.0,89,0.00,,,0.00,VWS V14.01,2013-01-20 07:33:00,
2013-01-20 00:38:00,9.5,6.9,30.78,East,94,0.0,0.0,89,0.00,,,0.00,VWS V14.01,2013-01-20 07:38:00,
2013-01-20 00:43:00,9.5,6.9,30.78,East,94,0.0,0.0,89,0.00,,,0.00,VWS V14.01,2013-01-20 07:43:00,
2013-01-20 00:48:00,9.5,6.9,30.78,East,94,0.0,0.0,89,0.00,,,0.00,VWS V14.01,2013-01-20 07:48:00,
2013-01-20 00:53:00,9.2,6.6,30.78,East,94,0.0,0.0,89,0.00,,,0.00,VWS V14.01,2013-01-20 07:53:00,
2013-01-20 00:58:00,9.2,6.6,30.79,East,94,0.0,0.0,89,0.00,,,0.00,VWS V14.01,2013-01-20 07:58:00,
2013-01-20 01:03:00,9.1,6.5,30.78,East,94,0.0,0.0,89,0.00,,,0.00,VWS V14.01,2013-01-20 08:03:00,
2013-01-20 01:08:00,8.8,6.2,30.78,East,94,0.0,0.0,89,0.00,,,0.00,VWS V14.01,2013-01-20 08:08:00,
2013-01-20 01:13:00,8.7,6.1,30.78,East,94,0.0,0.0,89,0.00,,,0.00,VWS V14.01,2013-01-20 08:13:00,
2013-01-20 01:18:00,8.6,6.0,30.79,East,94,0.0,0.0,89,0.00,,,0.00,VWS V14.01,2013-01-20 08:18:00,
2013-01-20 01:23:00,8.3,5.5,30.79,East,94,0.0,0.0,88,0.00,,,0.00,VWS V14.01,2013-01-20 08:23:00,
2013-01-20 01:28:00,8.2,5.4,30.79,East,94,0.0,0.0,88,0.00,,,0.00,VWS V14.01,2013-01-20 08:28:00,
2013-01-20 01:33:00,8.1,5.5,30.79,East,94,0.0,0.0,89,0.00,,,0.00,VWS V14.01,2013-01-20 08:33:00,
2013-01-20 01:38:00,7.8,5.2,30.79,East,94,0.0,0.0,89,0.00,,,0.00,VWS V14.01,2013-01-20 08:38:00,
2013-01-20 01:43:00,7.7,5.1,30.79,East,94,0.0,0.0,89,0.00,,,0.00,VWS V14.01,2013-01-20 08:43:00,
2013-01-20 01:48:00,7.8,5.2,30.79,East,94,0.0,0.0,89,0.00,,,0.00,VWS V14.01,2013-01-20 08:48:00,
2013-01-20 01:53:00,7.9,5.3,30.79,East,94,0.0,0.0,89,0.00,,,0.00,VWS V14.01,2013-01-20 08:53:00,
2013-01-20 01:58:00,7.7,5.1,30.79,East,94,0.0,0.0,89,0.00,,,0.00,VWS V14.01,2013-01-20 08:58:00,
2013-01-20 02:03:00,7.6,5.0,30.80,East,94,0.0,0.0,89,0.00,,,0.00,VWS V14.01,2013-01-20 09:03:00,
2013-01-20 02:08:00,7.7,5.1,30.79,East,94,0.0,0.0,89,0.00,,,0.00,VWS V14.01,2013-01-20 09:08:00,
2013-01-20 02:13:00,7.5,4.7,30.79,East,94,0.0,0.0,88,0.00,,,0.00,VWS V14.01,2013-01-20 09:13:00,
2013-01-20 02:18:00,7.1,4.3,30.79,East,94,0.0,0.0,88,0.00,,,0.00,VWS V14.01,2013-01-20 09:18:00,
2013-01-20 02:23:00,6.9,4.1,30.79,East,94,0.0,0.0,88,0.00,,,0.00,VWS V14.01,2013-01-20 09:23:00,
2013-01-20 02:28:00,7.3,4.5,30.79,East,94,0.0,0.0,88,0.00,,,0.00,VWS V14.01,2013-01-20 09:28:00,
2013-01-20 02:33:00,7.3,4.5,30.79,East,94,0.0,0.0,88,0.00,,,0.00,VWS V14.01,2013-01-20 09:33:00,
2013-01-20 02:38:00,7.3,4.5,30.80,East,94,0.0,0.0,88,0.00,,,0.00,VWS V14.01,2013-01-20 09:38:00,
2013-01-20 02:43:00,7.3,4.5,30.79,East,94,0.0,0.0,88,0.00,,,0.00,VWS V14.01,2013-01-20 09:43:00,
2013-01-20 02:48:00,7.2,4.4,30.79,East,94,0.0,0.0,88,0.00,,,0.00,VWS V14.01,2013-01-20 09:48:00,
2013-01-20 02:53:00,7.2,4.4,30.79,East,94,0.0,0.0,88,0.00,,,0.00,VWS V14.01,2013-01-20 09:53:00,
2013-01-20 02:58:00,7.3,4.5,30.79,East,94,0.0,0.0,88,0.00,,,0.00,VWS V14.01,2013-01-20 09:58:00,
2013-01-20 03:03:00,7.1,4.3,30.79,East,94,0.0,0.0,88,0.00,,,0.00,VWS V14.01,2013-01-20 10:03:00,
2013-01-20 03:08:00,6.9,4.1,30.79,East,94,0.0,0.0,88,0.00,,,0.00,VWS V14.01,2013-01-20 10:08:00,
2013-01-20 03:13:00,6.8,4.0,30.79,East,94,0.0,0.0,88,0.00,,,0.00,VWS V14.01,2013-01-20 10:13:00,
2013-01-20 03:18:00,6.3,3.3,30.79,East,94,0.0,0.0,87,0.00,,,0.00,VWS V14.01,2013-01-20 10:18:00,
2013-01-20 03:23:00,6.0,3.0,30.79,East,94,0.0,0.0,87,0.00,,,0.00,VWS V14.01,2013-01-20 10:23:00,
2013-01-20 03:28:00,6.0,3.0,30.79,East,94,0.0,0.0,87,0.00,,,0.00,VWS V14.01,2013-01-20 10:28:00,
2013-01-20 03:33:00,6.2,3.4,30.79,East,94,0.0,0.0,88,0.00,,,0.00,VWS V14.01,2013-01-20 10:33:00,
2013-01-20 03:38:00,6.5,3.7,30.79,East,94,0.0,0.0,88,0.00,,,0.00,VWS V14.01,2013-01-20 10:38:00,
2013-01-20 03:43:00,6.3,3.3,30.79,East,94,0.0,0.0,87,0.00,,,0.00,VWS V14.01,2013-01-20 10:43:00,
2013-01-20 03:48:00,6.3,3.5,30.79,East,94,0.0,0.0,88,0.00,,,0.00,VWS V14.01,2013-01-20 10:48:00,
2013-01-20 03:53:00,6.5,3.7,30.79,East,94,0.0,0.0,88,0.00,,,0.00,VWS V14.01,2013-01-20 10:53:00,
2013-01-20 03:58:00,6.2,3.2,30.79,East,94,0.0,0.0,87,0.00,,,0.00,VWS V14.01,2013-01-20 10:58:00,
2013-01-20 04:03:00,6.1,3.1,30.79,East,94,0.0,0.0,87,0.00,,,0.00,VWS V14.01,2013-01-20 11:03:00,
2013-01-20 04:08:00,6.1,3.3,30.79,East,94,0.0,0.0,88,0.00,,,0.00,VWS V14.01,2013-01-20 11:08:00,
2013-01-20 04:13:00,6.3,3.5,30.79,East,94,0.0,0.0,88,0.00,,,0.00,VWS V14.01,2013-01-20 11:13:00,
2013-01-20 04:18:00,6.2,3.4,30.79,East,94,0.0,0.0,88,0.00,,,0.00,VWS V14.01,2013-01-20 11:18:00,
2013-01-20 04:23:00,5.9,3.1,30.79,East,94,0.0,0.0,88,0.00,,,0.00,VWS V14.01,2013-01-20 11:23:00,
2013-01-20 04:28:00,5.6,2.6,30.80,East,94,0.0,0.0,87,0.00,,,0.00,VWS V14.01,2013-01-20 11:28:00,
2013-01-20 04:33:00,5.5,2.7,30.80,East,94,0.0,0.0,88,0.00,,,0.00,VWS V14.01,2013-01-20 11:33:00,
2013-01-20 04:38:00,5.3,2.3,30.79,East,94,0.0,0.0,87,0.00,,,0.00,VWS V14.01,2013-01-20 11:38:00,
2013-01-20 04:43:00,5.4,2.6,30.80,East,94,0.0,0.0,88,0.00,,,0.00,VWS V14.01,2013-01-20 11:43:00,
2013-01-20 04:48:00,5.6,2.8,30.80,East,94,0.0,0.0,88,0.00,,,0.00,VWS V14.01,2013-01-20 11:48:00,
2013-01-20 04:53:00,5.4,2.4,30.80,East,94,0.0,0.0,87,0.00,,,0.00,VWS V14.01,2013-01-20 11:53:00,
2013-01-20 04:58:00,5.4,2.4,30.80,East,94,0.0,0.0,87,0.00,,,0.00,VWS V14.01,2013-01-20 11:58:00,
2013-01-20 05:03:00,5.4,2.4,30.80,East,94,0.0,0.0,87,0.00,,FEW002,0.00,VWS V14.01,2013-01-20 12:03:00,
2013-01-20 05:08:00,5.6,2.8,30.80,East,94,0.0,0.0,88,0.00,,FEW002,0.00,VWS V14.01,2013-01-20 12:08:00,
2013-01-20 05:13:00,5.8,3.0,30.80,East,94,0.0,0.0,88,0.00,,FEW002,0.00,VWS V14.01,2013-01-20 12:13:00,
2013-01-20 05:19:00,5.7,2.7,30.80,East,94,0.0,0.0,87,0.00,,FEW002,0.00,VWS V14.01,2013-01-20 12:19:00,
2013-01-20 05:24:00,5.6,2.6,30.80,East,94,0.0,0.0,87,0.00,,FEW002,0.00,VWS V14.01,2013-01-20 12:24:00,
2013-01-20 05:29:00,5.6,2.6,30.81,East,94,0.0,0.0,87,0.00,,FEW002,0.00,VWS V14.01,2013-01-20 12:29:00,
2013-01-20 05:34:00,4.9,1.6,30.80,East,94,0.0,0.0,86,0.00,,FEW002,0.00,VWS V14.01,2013-01-20 12:34:00,
2013-01-20 05:39:00,4.6,1.3,30.80,East,94,0.0,0.0,86,0.00,,FEW002,0.00,VWS V14.01,2013-01-20 12:39:00,
2013-01-20 05:44:00,4.4,1.4,30.80,East,94,0.0,0.0,87,0.00,,FEW002,0.00,VWS V14.01,2013-01-20 12:44:00,
2013-01-20 05:49:00,4.2,1.2,30.80,East,94,0.0,0.0,87,0.00,,FEW002,0.00,VWS V14.01,2013-01-20 12:49:00,
2013-01-20 05:54:00,4.1,1.1,30.80,East,94,0.0,0.0,87,0.00,,FEW002,0.00,VWS V14.01,2013-01-20 12:54:00,
2013-01-20 05:59:00,4.2,1.2,30.80,East,94,0.0,0.0,87,0.00,,FEW002,0.00,VWS V14.01,2013-01-20 12:59:00,
2013-01-20 06:04:00,4.2,1.2,30.80,East,94,0.0,0.0,87,0.00,,CLR,0.00,VWS V14.01,2013-01-20 13:04:00,
2013-01-20 06:09:00,4.1,1.1,30.80,East,94,0.0,0.0,87,0.00,,CLR,0.00,VWS V14.01,2013-01-20 13:09:00,
2013-01-20 06:14:00,4.1,1.1,30.80,East,94,0.0,0.0,87,0.00,,CLR,0.00,VWS V14.01,2013-01-20 13:14:00,
2013-01-20 06:19:00,4.4,1.4,30.80,East,94,0.0,0.0,87,0.00,,CLR,0.00,VWS V14.01,2013-01-20 13:19:00,
2013-01-20 06:24:00,4.2,0.9,30.80,East,94,0.0,0.0,86,0.00,,CLR,0.00,VWS V14.01,2013-01-20 13:24:00,
2013-01-20 06:29:00,4.4,1.4,30.81,East,94,0.0,0.0,87,0.00,,CLR,0.00,VWS V14.01,2013-01-20 13:29:00,
2013-01-20 06:34:00,4.1,0.9,30.80,East,94,0.0,0.0,86,0.00,,CLR,0.00,VWS V14.01,2013-01-20 13:34:00,
2013-01-20 06:39:00,3.9,0.9,30.81,East,94,0.0,0.0,87,0.00,,CLR,0.00,VWS V14.01,2013-01-20 13:39:00,
2013-01-20 06:44:00,3.9,0.9,30.80,East,94,0.0,0.0,87,0.00,,CLR,0.00,VWS V14.01,2013-01-20 13:44:00,
2013-01-20 06:49:00,4.1,1.1,30.80,East,94,0.0,0.0,87,0.00,,CLR,0.00,VWS V14.01,2013-01-20 13:49:00,
2013-01-20 06:54:00,3.8,0.6,30.80,East,94,0.0,0.0,86,0.00,,CLR,0.00,VWS V14.01,2013-01-20 13:54:00,
2013-01-20 06:59:00,3.8,0.8,30.81,East,94,0.0,0.0,87,0.00,,CLR,0.00,VWS V14.01,2013-01-20 13:59:00,
2013-01-20 07:04:00,4.1,1.1,30.81,East,94,0.0,0.0,87,0.00,,CLR,0.00,VWS V14.01,2013-01-20 14:04:00,
2013-01-20 07:09:00,4.2,1.2,30.81,East,94,0.0,0.0,87,0.00,,CLR,0.00,VWS V14.01,2013-01-20 14:09:00,
2013-01-20 07:14:00,3.8,0.6,30.80,East,94,0.0,0.0,86,0.00,,CLR,0.00,VWS V14.01,2013-01-20 14:14:00,
2013-01-20 07:19:00,3.6,0.4,30.80,East,94,0.0,0.0,86,0.00,,CLR,0.00,VWS V14.01,2013-01-20 14:19:00,
2013-01-20 07:24:00,3.1,-0.1,30.80,East,94,0.0,0.0,86,0.00,,CLR,0.00,VWS V14.01,2013-01-20 14:24:00,
2013-01-20 07:29:00,3.2,0.2,30.79,East,94,0.0,0.0,87,0.00,,CLR,0.00,VWS V14.01,2013-01-20 14:29:00,
2013-01-20 07:34:00,3.3,0.3,30.79,East,94,0.0,0.0,87,0.00,,CLR,0.00,VWS V14.01,2013-01-20 14:34:00,
2013-01-20 07:39:00,3.4,0.2,30.79,East,94,0.0,0.0,86,0.00,,CLR,0.00,VWS V14.01,2013-01-20 14:39:00,
2013-01-20 07:44:00,3.5,0.5,30.79,East,94,0.0,0.0,87,0.00,,CLR,0.00,VWS V14.01,2013-01-20 14:44:00,
2013-01-20 07:49:00,3.7,0.7,30.80,East,94,0.0,0.0,87,0.00,,CLR,0.00,VWS V14.01,2013-01-20 14:49:00,
2013-01-20 07:54:00,3.7,0.7,30.80,East,94,0.0,0.0,87,0.00,,CLR,0.00,VWS V14.01,2013-01-20 14:54:00,
2013-01-20 07:59:00,3.8,0.8,30.81,East,94,0.0,0.0,87,0.00,,CLR,0.00,VWS V14.01,2013-01-20 14:59:00,
2013-01-20 08:04:00,3.9,0.9,30.81,East,94,0.0,0.0,87,0.00,,CLR,0.00,VWS V14.01,2013-01-20 15:04:00,
2013-01-20 08:09:00,3.7,0.7,30.81,East,94,0.0,0.0,87,0.00,,CLR,0.00,VWS V14.01,2013-01-20 15:09:00,
2013-01-20 08:14:00,3.4,0.2,30.81,East,94,0.0,0.0,86,0.00,,CLR,0.00,VWS V14.01,2013-01-20 15:14:00,
2013-01-20 08:19:00,2.8,-0.4,30.81,East,94,0.0,0.0,86,0.00,,CLR,0.00,VWS V14.01,2013-01-20 15:19:00,
2013-01-20 08:24:00,2.8,-0.2,30.80,East,94,0.0,0.0,87,0.00,,CLR,0.00,VWS V14.01,2013-01-20 15:24:00,
2013-01-20 08:29:00,3.2,0.2,30.80,East,94,0.0,0.0,87,0.00,,CLR,0.00,VWS V14.01,2013-01-20 15:29:00,
2013-01-20 08:34:00,2.9,-0.3,30.81,East,94,0.0,0.0,86,0.00,,CLR,0.00,VWS V14.01,2013-01-20 15:34:00,
2013-01-20 08:39:00,2.5,-0.7,30.80,East,94,0.0,0.0,86,0.00,,CLR,0.00,VWS V14.01,2013-01-20 15:39:00,
2013-01-20 08:44:00,2.4,-0.8,30.81,East,94,0.0,0.0,86,0.00,,CLR,0.00,VWS V14.01,2013-01-20 15:44:00,
2013-01-20 08:49:00,2.5,-0.7,30.81,East,94,0.0,0.0,86,0.00,,CLR,0.00,VWS V14.01,2013-01-20 15:49:00,
2013-01-20 08:54:00,3.3,0.3,30.81,East,94,0.0,0.0,87,0.00,,CLR,0.00,VWS V14.01,2013-01-20 15:54:00,
2013-01-20 08:59:00,4.1,1.1,30.81,East,94,0.0,0.0,87,0.00,,CLR,0.00,VWS V14.01,2013-01-20 15:59:00,
2013-01-20 09:04:00,4.9,1.9,30.81,East,94,0.0,0.0,87,0.00,,BKN002,0.00,VWS V14.01,2013-01-20 16:04:00,
2013-01-20 09:09:00,4.5,1.2,30.82,East,94,0.0,0.0,86,0.00,,BKN002,0.00,VWS V14.01,2013-01-20 16:09:00,
2013-01-20 09:14:00,4.1,1.1,30.82,East,94,0.0,1.0,87,0.00,,BKN002,0.00,VWS V14.01,2013-01-20 16:14:00,
2013-01-20 09:19:00,4.2,1.2,30.82,East,94,0.0,0.0,87,0.00,,BKN002,0.00,VWS V14.01,2013-01-20 16:19:00,
2013-01-20 09:24:00,4.4,1.4,30.81,East,94,0.0,1.0,87,0.00,,BKN002,0.00,VWS V14.01,2013-01-20 16:24:00,
2013-01-20 09:29:00,4.4,1.6,30.81,East,94,0.0,0.0,88,0.00,,BKN002,0.00,VWS V14.01,2013-01-20 16:29:00,
2013-01-20 09:34:00,5.1,2.6,30.81,East,94,0.0,0.0,89,0.00,,BKN002,0.00,VWS V14.01,2013-01-20 16:34:00,
2013-01-20 09:39:00,5.5,2.7,30.81,East,94,0.0,0.0,88,0.00,,BKN002,0.00,VWS V14.01,2013-01-20 16:39:00,
2013-01-20 09:44:00,6.0,3.5,30.81,East,94,0.0,0.0,89,0.00,,BKN002,0.00,VWS V14.01,2013-01-20 16:44:00,
2013-01-20 09:49:00,6.7,3.7,30.82,East,94,0.0,0.0,87,0.00,,BKN002,0.00,VWS V14.01,2013-01-20 16:49:00,
2013-01-20 09:54:00,6.5,3.7,30.82,East,94,0.0,0.0,88,0.00,,BKN002,0.00,VWS V14.01,2013-01-20 16:54:00,
2013-01-20 09:59:00,6.8,3.5,30.82,East,94,0.0,0.0,86,0.00,,BKN002,0.00,VWS V14.01,2013-01-20 16:59:00,
2013-01-20 10:04:00,6.7,3.4,30.82,East,94,1.0,1.0,86,0.00,,,0.00,VWS V14.01,2013-01-20 17:04:00,
2013-01-20 10:09:00,6.9,3.6,30.82,East,94,0.0,0.0,86,0.00,,,0.00,VWS V14.01,2013-01-20 17:09:00,
2013-01-20 10:14:00,7.1,3.5,30.82,East,94,0.0,1.0,85,0.00,,,0.00,VWS V14.01,2013-01-20 17:14:00,
2013-01-20 10:19:00,7.4,4.1,30.82,South,181,1.0,1.0,86,0.00,,,0.00,VWS V14.01,2013-01-20 17:19:00,
2013-01-20 10:24:00,7.5,3.9,30.82,South,181,2.0,2.0,85,0.00,,,0.00,VWS V14.01,2013-01-20 17:24:00,
2013-01-20 10:29:00,8.6,5.3,30.82,South,181,0.0,0.0,86,0.00,,,0.00,VWS V14.01,2013-01-20 17:29:00,
2013-01-20 10:34:00,11.0,7.4,30.82,South,180,0.0,0.0,85,0.00,,,0.00,VWS V14.01,2013-01-20 17:34:00,
2013-01-20 10:39:00,10.8,6.9,30.82,South,181,0.0,1.0,84,0.00,,,0.00,VWS V14.01,2013-01-20 17:39:00,
2013-01-20 10:44:00,10.0,5.9,30.82,South,180,2.0,4.0,83,0.00,,,0.00,VWS V14.01,2013-01-20 17:44:00,
2013-01-20 10:49:00,10.1,6.5,30.82,South,181,0.0,1.0,85,0.00,,,0.00,VWS V14.01,2013-01-20 17:49:00,
2013-01-20 10:54:00,10.5,6.6,30.82,South,181,3.0,3.0,84,0.00,,,0.00,VWS V14.01,2013-01-20 17:54:00,
2013-01-20 10:59:00,9.9,5.8,30.82,South,183,0.0,1.0,83,0.00,,,0.00,VWS V14.01,2013-01-20 17:59:00,
2013-01-20 11:04:00,10.3,6.4,30.82,South,183,0.0,1.0,84,0.00,,CLR,0.00,VWS V14.01,2013-01-20 18:04:00,
2013-01-20 11:09:00,11.5,9.6,30.82,South,183,0.0,1.0,92,0.00,,CLR,0.00,VWS V14.01,2013-01-20 18:09:00,
2013-01-20 11:14:00,11.9,7.7,30.81,South,183,0.0,3.0,83,0.00,,CLR,0.00,VWS V14.01,2013-01-20 18:14:00,
2013-01-20 11:19:00,12.1,7.7,30.81,South,183,3.0,3.0,82,0.00,,CLR,0.00,VWS V14.01,2013-01-20 18:19:00,
2013-01-20 11:24:00,12.6,7.9,30.81,South,183,0.0,3.0,81,0.00,,CLR,0.00,VWS V14.01,2013-01-20 18:24:00,
2013-01-20 11:30:00,12.8,8.1,30.81,South,183,0.0,1.0,81,0.00,,CLR,0.00,VWS V14.01,2013-01-20 18:30:00,
2013-01-20 11:35:00,13.3,8.3,30.81,South,183,0.0,2.0,80,0.00,,CLR,0.00,VWS V14.01,2013-01-20 18:35:00,
2013-01-20 11:40:00,14.3,9.0,30.81,South,183,1.0,2.0,79,0.00,,CLR,0.00,VWS V14.01,2013-01-20 18:40:00,
2013-01-20 11:45:00,15.4,9.8,30.80,South,183,2.0,3.0,78,0.00,,CLR,0.00,VWS V14.01,2013-01-20 18:45:00,
2013-01-20 11:50:00,15.5,9.9,30.80,South,186,2.0,3.0,78,0.00,,CLR,0.00,VWS V14.01,2013-01-20 18:50:00,
2013-01-20 11:55:00,16.7,11.3,30.80,South,184,1.0,3.0,79,0.00,,CLR,0.00,VWS V14.01,2013-01-20 18:55:00,
2013-01-20 12:00:00,19.0,12.1,30.79,South,185,1.0,2.0,74,0.00,,CLR,0.00,VWS V14.01,2013-01-20 19:00:00,
2013-01-20 12:05:00,18.8,12.8,30.80,South,184,0.0,2.0,77,0.00,,CLR,0.00,VWS V14.01,2013-01-20 19:05:00,
2013-01-20 12:10:00,17.3,10.4,30.79,South,186,3.0,3.0,74,0.00,,CLR,0.00,VWS V14.01,2013-01-20 19:10:00,
2013-01-20 12:15:00,17.1,10.9,30.79,SSW,192,1.0,3.0,76,0.00,,CLR,0.00,VWS V14.01,2013-01-20 19:15:00,
2013-01-20 12:20:00,16.9,10.7,30.78,South,183,1.0,4.0,76,0.00,,CLR,0.00,VWS V14.01,2013-01-20 19:20:00,
2013-01-20 12:25:00,17.1,11.4,30.78,South,171,3.0,4.0,78,0.00,,CLR,0.00,VWS V14.01,2013-01-20 19:25:00,
2013-01-20 12:30:00,17.3,11.6,30.78,SSE,163,2.0,4.0,78,0.00,,CLR,0.00,VWS V14.01,2013-01-20 19:30:00,
2013-01-20 12:35:00,18.5,12.2,30.77,South,188,2.0,4.0,76,0.00,,CLR,0.00,VWS V14.01,2013-01-20 19:35:00,
2013-01-20 12:40:00,18.6,12.6,30.77,SSE,159,1.0,3.0,77,0.00,,CLR,0.00,VWS V14.01,2013-01-20 19:40:00,
2013-01-20 12:45:00,18.9,12.9,30.76,South,175,0.0,8.0,77,0.00,,CLR,0.00,VWS V14.01,2013-01-20 19:45:00,
2013-01-20 12:50:00,19.1,12.8,30.76,South,184,4.0,6.0,76,0.00,,CLR,0.00,VWS V14.01,2013-01-20 19:50:00,
2013-01-20 12:55:00,19.7,13.7,30.76,SSW,192,2.0,6.0,77,0.00,,CLR,0.00,VWS V14.01,2013-01-20 19:55:00,
2013-01-20 13:00:00,19.8,13.5,30.76,South,176,1.0,2.0,76,0.00,,CLR,0.00,VWS V14.01,2013-01-20 20:00:00,
2013-01-20 13:05:00,20.7,14.0,30.76,South,175,5.0,6.0,75,0.00,,CLR,0.00,VWS V14.01,2013-01-20 20:05:00,
2013-01-20 13:10:00,20.8,14.1,30.75,South,184,4.0,5.0,75,0.00,,CLR,0.00,VWS V14.01,2013-01-20 20:10:00,
2013-01-20 13:15:00,21.5,14.8,30.75,South,178,3.0,6.0,75,0.00,,CLR,0.00,VWS V14.01,2013-01-20 20:15:00,
2013-01-20 13:20:00,21.3,14.6,30.75,SSW,199,4.0,6.0,75,0.00,,CLR,0.00,VWS V14.01,2013-01-20 20:20:00,
2013-01-20 13:25:00,21.8,15.1,30.75,SSE,163,1.0,6.0,75,0.00,,CLR,0.00,VWS V14.01,2013-01-20 20:25:00,
2013-01-20 13:30:00,23.5,15.8,30.75,South,186,1.0,3.0,72,0.00,,CLR,0.00,VWS V14.01,2013-01-20 20:30:00,
2013-01-20 13:35:00,23.5,15.8,30.74,South,190,3.0,5.0,72,0.00,,CLR,0.00,VWS V14.01,2013-01-20 20:35:00,
2013-01-20 13:40:00,23.3,15.6,30.74,South,176,3.0,3.0,72,0.00,,CLR,0.00,VWS V14.01,2013-01-20 20:40:00,
2013-01-20 13:45:00,23.3,15.6,30.74,South,184,0.0,5.0,72,0.00,,CLR,0.00,VWS V14.01,2013-01-20 20:45:00,
2013-01-20 13:50:00,23.9,16.5,30.73,South,187,0.0,2.0,73,0.00,,CLR,0.00,VWS V14.01,2013-01-20 20:50:00,
2013-01-20 13:55:00,24.1,16.1,30.73,SSW,194,0.0,5.0,71,0.00,,CLR,0.00,VWS V14.01,2013-01-20 20:55:00,
2013-01-20 14:00:00,25.1,16.4,30.73,South,176,3.0,4.0,69,0.00,,CLR,0.00,VWS V14.01,2013-01-20 21:00:00,
2013-01-20 14:05:00,24.6,16.2,30.73,South,176,1.0,4.0,70,0.00,,CLR,0.00,VWS V14.01,2013-01-20 21:05:00,
2013-01-20 14:10:00,25.3,16.9,30.73,South,176,2.0,4.0,70,0.00,,CLR,0.00,VWS V14.01,2013-01-20 21:10:00,
2013-01-20 14:15:00,25.1,16.7,30.73,South,169,1.0,4.0,70,0.00,,CLR,0.00,VWS V14.01,2013-01-20 21:15:00,
2013-01-20 14:20:00,25.6,16.9,30.72,SSE,168,0.0,3.0,69,0.00,,CLR,0.00,VWS V14.01,2013-01-20 21:20:00,
2013-01-20 14:25:00,25.4,16.3,30.72,South,173,2.0,3.0,68,0.00,,CLR,0.00,VWS V14.01,2013-01-20 21:25:00,
2013-01-20 14:30:00,25.1,16.4,30.72,SSE,165,3.0,5.0,69,0.00,,CLR,0.00,VWS V14.01,2013-01-20 21:30:00,
2013-01-20 14:35:00,25.4,17.3,30.72,South,172,2.0,5.0,71,0.00,,CLR,0.00,VWS V14.01,2013-01-20 21:35:00,
2013-01-20 14:40:00,25.2,16.8,30.71,SSE,166,1.0,1.0,70,0.00,,CLR,0.00,VWS V14.01,2013-01-20 21:40:00,
2013-01-20 14:45:00,26.6,17.1,30.71,SSE,165,1.0,3.0,67,0.00,,CLR,0.00,VWS V14.01,2013-01-20 21:45:00,
2013-01-20 14:50:00,27.7,17.5,30.71,SSE,166,0.0,1.0,65,0.00,,CLR,0.00,VWS V14.01,2013-01-20 21:50:00,
2013-01-20 14:55:00,27.4,16.8,30.71,SSE,166,2.0,3.0,64,0.00,,CLR,0.00,VWS V14.01,2013-01-20 21:55:00,
2013-01-20 15:00:00,27.5,17.3,30.71,SSE,167,2.0,2.0,65,0.00,,CLR,0.00,VWS V14.01,2013-01-20 22:00:00,
2013-01-20 15:05:00,26.3,16.5,30.71,SSE,167,0.0,3.0,66,0.00,,CLR,0.00,VWS V14.01,2013-01-20 22:05:00,
2013-01-20 15:10:00,26.9,16.7,30.71,SSE,168,1.0,3.0,65,0.00,,CLR,0.00,VWS V14.01,2013-01-20 22:10:00,
2013-01-20 15:15:00,25.9,16.5,30.71,South,173,2.0,6.0,67,0.00,,CLR,0.00,VWS V14.01,2013-01-20 22:15:00,
2013-01-20 15:20:00,25.8,16.7,30.70,South,172,0.0,3.0,68,0.00,,CLR,0.00,VWS V14.01,2013-01-20 22:20:00,
2013-01-20 15:25:00,25.9,16.8,30.70,South,172,0.0,3.0,68,0.00,,CLR,0.00,VWS V14.01,2013-01-20 22:25:00,
2013-01-20 15:30:00,26.0,16.9,30.70,SSE,164,1.0,3.0,68,0.00,,CLR,0.00,VWS V14.01,2013-01-20 22:30:00,
2013-01-20 15:35:00,26.1,17.0,30.70,SSE,164,0.0,3.0,68,0.00,,CLR,0.00,VWS V14.01,2013-01-20 22:35:00,
2013-01-20 15:40:00,26.3,16.9,30.70,SSE,166,2.0,3.0,67,0.00,,CLR,0.00,VWS V14.01,2013-01-20 22:40:00,
2013-01-20 15:45:00,26.1,17.0,30.70,SSE,167,1.0,3.0,68,0.00,,CLR,0.00,VWS V14.01,2013-01-20 22:45:00,
2013-01-20 15:50:00,25.5,16.4,30.70,South,184,2.0,3.0,68,0.00,,CLR,0.00,VWS V14.01,2013-01-20 22:50:00,
2013-01-20 15:55:00,24.9,16.2,30.70,South,184,0.0,3.0,69,0.00,,CLR,0.00,VWS V14.01,2013-01-20 22:55:00,
2013-01-20 16:01:00,24.9,16.2,30.70,South,184,3.0,3.0,69,0.00,,CLR,0.00,VWS V14.01,2013-01-20 23:01:00,
2013-01-20 16:06:00,24.7,16.3,30.70,SSE,164,0.0,4.0,70,0.00,,CLR,0.00,VWS V14.01,2013-01-20 23:06:00,
2013-01-20 16:11:00,24.7,16.3,30.70,SSE,164,0.0,3.0,70,0.00,,CLR,0.00,VWS V14.01,2013-01-20 23:11:00,
2013-01-20 16:16:00,23.8,15.5,30.70,SSE,164,0.0,3.0,70,0.00,,CLR,0.00,VWS V14.01,2013-01-20 23:16:00,
2013-01-20 16:21:00,23.4,15.7,30.70,SSE,164,0.0,0.0,72,0.00,,CLR,0.00,VWS V14.01,2013-01-20 23:21:00,
2013-01-20 16:26:00,23.1,15.4,30.70,SSE,164,0.0,3.0,72,0.00,,CLR,0.00,VWS V14.01,2013-01-20 23:26:00,
2013-01-20 16:31:00,22.9,15.2,30.70,SSE,164,0.0,0.0,72,0.00,,CLR,0.00,VWS V14.01,2013-01-20 23:31:00,
2013-01-20 16:36:00,22.7,15.1,30.70,SSE,164,0.0,0.0,72,0.00,,CLR,0.00,VWS V14.01,2013-01-20 23:36:00,
2013-01-20 16:41:00,22.2,14.9,30.70,SSE,164,0.0,0.0,73,0.00,,CLR,0.00,VWS V14.01,2013-01-20 23:41:00,
2013-01-20 16:46:00,22.1,15.1,30.70,SSE,164,0.0,0.0,74,0.00,,CLR,0.00,VWS V14.01,2013-01-20 23:46:00,
2013-01-20 16:51:00,22.0,15.0,30.70,SSE,164,0.0,0.0,74,0.00,,CLR,0.00,VWS V14.01,2013-01-20 23:51:00,
2013-01-20 16:56:00,21.8,14.8,30.70,SSE,164,0.0,0.0,74,0.00,,CLR,0.00,VWS V14.01,2013-01-20 23:56:00,
2013-01-20 17:01:00,21.5,14.8,30.70,SSE,164,0.0,1.0,75,0.00,,CLR,0.00,VWS V14.01,2013-01-21 00:01:00,
2013-01-20 17:06:00,20.9,14.2,30.70,SSE,164,0.0,1.0,75,0.00,,CLR,0.00,VWS V14.01,2013-01-21 00:06:00,
2013-01-20 17:11:00,20.9,14.5,30.70,SSE,164,0.0,0.0,76,0.00,,CLR,0.00,VWS V14.01,2013-01-21 00:11:00,
2013-01-20 17:16:00,20.6,13.9,30.70,SSE,164,0.0,0.0,75,0.00,,CLR,0.00,VWS V14.01,2013-01-21 00:16:00,
2013-01-20 17:21:00,20.6,14.2,30.70,SSE,164,0.0,1.0,76,0.00,,CLR,0.00,VWS V14.01,2013-01-21 00:21:00,
2013-01-20 17:26:00,20.3,13.7,30.70,SSE,164,0.0,1.0,75,0.00,,CLR,0.00,VWS V14.01,2013-01-21 00:26:00,
2013-01-20 17:31:00,19.8,13.5,30.70,SSE,164,0.0,0.0,76,0.00,,CLR,0.00,VWS V14.01,2013-01-21 00:31:00,
2013-01-20 17:36:00,19.7,13.4,30.70,SSE,164,0.0,1.0,76,0.00,,CLR,0.00,VWS V14.01,2013-01-21 00:36:00,
2013-01-20 17:41:00,19.4,13.4,30.70,SSE,164,0.0,0.0,77,0.00,,CLR,0.00,VWS V14.01,2013-01-21 00:41:00,
2013-01-20 17:46:00,19.0,13.3,30.70,SSE,164,0.0,0.0,78,0.00,,CLR,0.00,VWS V14.01,2013-01-21 00:46:00,
2013-01-20 17:51:00,18.2,12.5,30.70,SSE,164,0.0,1.0,78,0.00,,CLR,0.00,VWS V14.01,2013-01-21 00:51:00,
2013-01-20 17:56:00,17.9,12.5,30.71,SSE,164,0.0,1.0,79,0.00,,CLR,0.00,VWS V14.01,2013-01-21 00:56:00,
2013-01-20 18:01:00,17.9,12.5,30.71,SSE,164,0.0,0.0,79,0.00,,CLR,0.00,VWS V14.01,2013-01-21 01:01:00,
2013-01-20 18:06:00,17.7,12.6,30.71,SSE,164,0.0,1.0,80,0.00,,CLR,0.00,VWS V14.01,2013-01-21 01:06:00,
2013-01-20 18:11:00,18.0,12.9,30.71,SSE,164,0.0,0.0,80,0.00,,CLR,0.00,VWS V14.01,2013-01-21 01:11:00,
2013-01-20 18:16:00,18.0,12.6,30.71,SSE,164,0.0,0.0,79,0.00,,CLR,0.00,VWS V14.01,2013-01-21 01:16:00,
2013-01-20 18:21:00,17.5,12.1,30.71,SSE,164,0.0,0.0,79,0.00,,CLR,0.00,VWS V14.01,2013-01-21 01:21:00,
2013-01-20 18:26:00,17.2,12.1,30.71,SSE,164,0.0,0.0,80,0.00,,CLR,0.00,VWS V14.01,2013-01-21 01:26:00,
2013-01-20 18:31:00,17.1,12.3,30.71,SSE,164,0.0,0.0,81,0.00,,CLR,0.00,VWS V14.01,2013-01-21 01:31:00,
2013-01-20 18:36:00,17.0,12.2,30.72,SSE,164,0.0,0.0,81,0.00,,CLR,0.00,VWS V14.01,2013-01-21 01:36:00,
2013-01-20 18:41:00,17.1,12.3,30.72,SSE,164,0.0,0.0,81,0.00,,CLR,0.00,VWS V14.01,2013-01-21 01:41:00,
2013-01-20 18:46:00,17.2,12.4,30.72,SSE,164,0.0,0.0,81,0.00,,CLR,0.00,VWS V14.01,2013-01-21 01:46:00,
2013-01-20 18:51:00,17.0,12.2,30.72,SSE,164,0.0,0.0,81,0.00,,CLR,0.00,VWS V14.01,2013-01-21 01:51:00,
2013-01-20 18:56:00,16.8,12.3,30.72,SSE,164,0.0,0.0,82,0.00,,CLR,0.00,VWS V14.01,2013-01-21 01:56:00,
2013-01-20 19:01:00,16.8,12.0,30.72,SSE,164,0.0,1.0,81,0.00,,CLR,0.00,VWS V14.01,2013-01-21 02:01:00,
2013-01-20 19:09:00,16.4,11.6,30.72,SSE,164,0.0,1.0,81,0.00,,CLR,0.00,VWS V14.01,2013-01-21 02:09:00,
2013-01-20 19:16:00,16.0,11.5,30.72,SSE,164,0.0,0.0,82,0.00,,CLR,0.00,VWS V14.01,2013-01-21 02:16:00,
2013-01-20 19:21:00,15.8,11.3,30.73,SSE,164,0.0,0.0,82,0.00,,CLR,0.00,VWS V14.01,2013-01-21 02:21:00,
2013-01-20 19:29:00,15.7,11.2,30.73,SSE,164,0.0,0.0,82,0.00,,CLR,0.00,VWS V14.01,2013-01-21 02:29:00,
2013-01-20 19:37:00,15.4,10.9,30.73,SSE,164,0.0,0.0,82,0.00,,CLR,0.00,VWS V14.01,2013-01-21 02:37:00,
2013-01-20 19:42:00,15.0,10.5,30.73,SSE,164,0.0,0.0,82,0.00,,CLR,0.00,VWS V14.01,2013-01-21 02:42:00,
2013-01-20 19:47:00,14.7,10.5,30.73,SSE,164,0.0,0.0,83,0.00,,CLR,0.00,VWS V14.01,2013-01-21 02:47:00,
2013-01-20 19:52:00,14.5,10.6,30.73,SSE,164,0.0,0.0,84,0.00,,CLR,0.00,VWS V14.01,2013-01-21 02:52:00,
2013-01-20 19:57:00,14.4,10.5,30.73,SSE,164,0.0,0.0,84,0.00,,CLR,0.00,VWS V14.01,2013-01-21 02:57:00,
2013-01-20 20:02:00,14.4,10.5,30.73,SSE,164,0.0,0.0,84,0.00,,CLR,0.00,VWS V14.01,2013-01-21 03:02:00,
2013-01-20 20:07:00,14.4,10.7,30.74,SSE,164,0.0,0.0,85,0.00,,CLR,0.00,VWS V14.01,2013-01-21 03:07:00,
2013-01-20 20:12:00,14.5,10.8,30.74,SSE,164,0.0,0.0,85,0.00,,CLR,0.00,VWS V14.01,2013-01-21 03:12:00,
2013-01-20 20:17:00,14.7,11.0,30.74,SSE,164,0.0,0.0,85,0.00,,CLR,0.00,VWS V14.01,2013-01-21 03:17:00,
2013-01-20 20:22:00,14.7,11.0,30.74,SSE,164,0.0,0.0,85,0.00,,CLR,0.00,VWS V14.01,2013-01-21 03:22:00,
2013-01-20 20:27:00,14.5,10.8,30.73,SSE,164,0.0,0.0,85,0.00,,CLR,0.00,VWS V14.01,2013-01-21 03:27:00,
2013-01-20 20:32:00,14.4,10.7,30.73,SSE,164,0.0,0.0,85,0.00,,CLR,0.00,VWS V14.01,2013-01-21 03:32:00,
2013-01-20 20:37:00,14.1,10.4,30.74,SSE,164,0.0,0.0,85,0.00,,CLR,0.00,VWS V14.01,2013-01-21 03:37:00,
2013-01-20 20:42:00,14.0,10.3,30.74,SSE,164,0.0,0.0,85,0.00,,CLR,0.00,VWS V14.01,2013-01-21 03:42:00,
2013-01-20 20:47:00,13.9,10.5,30.74,SSE,164,0.0,0.0,86,0.00,,CLR,0.00,VWS V14.01,2013-01-21 03:47:00,
2013-01-20 20:52:00,13.8,10.4,30.74,SSE,164,0.0,0.0,86,0.00,,CLR,0.00,VWS V14.01,2013-01-21 03:52:00,
2013-01-20 20:57:00,13.6,10.2,30.74,SSE,164,0.0,0.0,86,0.00,,CLR,0.00,VWS V14.01,2013-01-21 03:57:00,
2013-01-20 21:02:00,13.8,10.4,30.74,SSE,164,0.0,0.0,86,0.00,,,0.00,VWS V14.01,2013-01-21 04:02:00,
2013-01-20 21:07:00,13.7,10.6,30.74,SSE,164,0.0,0.0,87,0.00,,,0.00,VWS V14.01,2013-01-21 04:07:00,
2013-01-20 21:12:00,13.4,10.0,30.75,SSE,164,0.0,0.0,86,0.00,,,0.00,VWS V14.01,2013-01-21 04:12:00,
2013-01-20 21:17:00,13.4,10.3,30.75,SSE,164,0.0,0.0,87,0.00,,,0.00,VWS V14.01,2013-01-21 04:17:00,
2013-01-20 21:22:00,13.4,10.3,30.75,SSE,164,0.0,0.0,87,0.00,,,0.00,VWS V14.01,2013-01-21 04:22:00,
2013-01-20 21:27:00,13.1,10.0,30.75,SSE,164,0.0,0.0,87,0.00,,,0.00,VWS V14.01,2013-01-21 04:27:00,
2013-01-20 21:32:00,13.1,10.2,30.75,SSE,164,0.0,0.0,88,0.00,,,0.00,VWS V14.01,2013-01-21 04:32:00,
2013-01-20 21:37:00,12.9,9.8,30.75,SSE,164,0.0,0.0,87,0.00,,,0.00,VWS V14.01,2013-01-21 04:37:00,
2013-01-20 21:42:00,12.9,10.0,30.75,SSE,164,0.0,0.0,88,0.00,,,0.00,VWS V14.01,2013-01-21 04:42:00,
2013-01-20 21:47:00,12.7,9.6,30.75,SSE,164,0.0,0.0,87,0.00,,,0.00,VWS V14.01,2013-01-21 04:47:00,
2013-01-20 21:53:00,12.4,9.5,30.75,SSE,164,0.0,0.0,88,0.00,,,0.00,VWS V14.01,2013-01-21 04:53:00,
2013-01-20 21:58:00,12.3,9.4,30.75,SSE,164,0.0,0.0,88,0.00,,,0.00,VWS V14.01,2013-01-21 04:58:00,
2013-01-20 22:08:00,11.9,9.0,30.76,SSE,164,0.0,0.0,88,0.00,,CLR,0.00,VWS V14.01,2013-01-21 05:08:00,
2013-01-20 22:09:00,11.9,9.0,30.75,SSE,164,0.0,0.0,88,0.00,,CLR,0.00,VWS V14.01,2013-01-21 05:09:00,
2013-01-20 22:18:00,11.9,9.0,30.75,SSE,164,0.0,1.0,88,0.00,,CLR,0.00,VWS V14.01,2013-01-21 05:18:00,
2013-01-20 22:23:00,11.7,8.6,30.75,SSE,164,0.0,0.0,87,0.00,,CLR,0.00,VWS V14.01,2013-01-21 05:23:00,
2013-01-20 22:28:00,11.4,8.3,30.76,SSE,164,0.0,0.0,87,0.00,,CLR,0.00,VWS V14.01,2013-01-21 05:28:00,
2013-01-20 22:33:00,11.6,8.7,30.76,SSE,164,0.0,0.0,88,0.00,,CLR,0.00,VWS V14.01,2013-01-21 05:33:00,
2013-01-20 22:38:00,11.8,8.9,30.75,SSE,164,0.0,0.0,88,0.00,,CLR,0.00,VWS V14.01,2013-01-21 05:38:00,
2013-01-20 22:43:00,11.6,8.5,30.75,SSE,164,0.0,0.0,87,0.00,,CLR,0.00,VWS V14.01,2013-01-21 05:43:00,
2013-01-20 22:48:00,11.2,8.1,30.75,SSE,164,0.0,0.0,87,0.00,,CLR,0.00,VWS V14.01,2013-01-21 05:48:00,
2013-01-20 22:53:00,10.7,7.8,30.75,SSE,164,0.0,0.0,88,0.00,,CLR,0.00,VWS V14.01,2013-01-21 05:53:00,
2013-01-20 22:58:00,11.1,8.2,30.75,SSE,164,0.0,0.0,88,0.00,,CLR,0.00,VWS V14.01,2013-01-21 05:58:00,
2013-01-20 23:03:00,11.0,8.1,30.75,SSE,164,0.0,0.0,88,0.00,,CLR,0.00,VWS V14.01,2013-01-21 06:03:00,
2013-01-20 23:08:00,10.8,7.9,30.75,SSE,164,0.0,0.0,88,0.00,,CLR,0.00,VWS V14.01,2013-01-21 06:08:00,
2013-01-20 23:13:00,10.5,7.7,30.75,SSE,164,0.0,0.0,88,0.00,,CLR,0.00,VWS V14.01,2013-01-21 06:13:00,
2013-01-20 23:18:00,10.5,7.7,30.75,SSE,164,0.0,0.0,88,0.00,,CLR,0.00,VWS V14.01,2013-01-21 06:18:00,
2013-01-20 23:23:00,10.6,7.8,30.75,SSE,164,0.0,0.0,88,0.00,,CLR,0.00,VWS V14.01,2013-01-21 06:23:00,
2013-01-20 23:28:00,11.0,8.4,30.75,SSE,164,0.0,0.0,89,0.00,,CLR,0.00,VWS V14.01,2013-01-21 06:28:00,
2013-01-20 23:33:00,10.9,8.3,30.75,SSE,164,0.0,0.0,89,0.00,,CLR,0.00,VWS V14.01,2013-01-21 06:33:00,
2013-01-20 23:38:00,10.9,8.3,30.75,SSE,164,0.0,0.0,89,0.00,,CLR,0.00,VWS V14.01,2013-01-21 06:38:00,
2013-01-20 23:43:00,10.7,8.1,30.75,SSE,164,0.0,0.0,89,0.00,,CLR,0.00,VWS V14.01,2013-01-21 06:43:00,
2013-01-20 23:48:00,10.6,8.0,30.75,SSE,164,0.0,0.0,89,0.00,,CLR,0.00,VWS V14.01,2013-01-21 06:48:00,
2013-01-20 23:53:00,10.3,7.7,30.76,SSE,164,0.0,0.0,89,0.00,,CLR,0.00,VWS V14.01,2013-01-21 06:53:00,
2013-01-20 23:58:00,10.2,7.6,30.76,SSE,164,0.0,0.0,89,0.00,,CLR,0.00,VWS V14.01,2013-01-21 06:58:00,